sensor_id;sensor_type;location;lat;lon;timestamp;temperature;humidity
47921;DHT22;33686;48.770;9.186;2023-09-19T05:17:41;16.90;99.90
47921;DHT22;33686;48.770;9.186;2023-09-19T05:20:07;16.90;99.90
47921;DHT22;33686;48.770;9.186;2023-09-19T05:22:41;16.90;99.90
47921;DHT22;33686;48.770;9.186;2023-09-19T05:25:07;16.80;99.90
47921;DHT22;33686;48.770;9.186;2023-09-19T05:27:33;16.80;99.90
47921;DHT22;33686;48.770;9.186;2023-09-19T05:30:02;16.80;99.90
47921;DHT22;33686;48.770;9.186;2023-09-19T05:32:27;16.80;99.90
47921;DHT22;33686;48.770;9.186;2023-09-19T05:34:53;16.80;99.90
47921;DHT22;33686;48.770;9.186;2023-09-19T05:37:19;16.80;99.90
47921;DHT22;33686;48.770;9.186;2023-09-19T05:39:44;16.80;99.90
47921;DHT22;33686;48.770;9.186;2023-09-19T05:42:10;16.80;99.90
47921;DHT22;33686;48.770;9.186;2023-09-19T05:44:36;16.80;99.90
47921;DHT22;33686;48.770;9.186;2023-09-19T05:47:04;16.70;99.90
47921;DHT22;33686;48.770;9.186;2023-09-19T05:49:30;16.70;99.90
47921;DHT22;33686;48.770;9.186;2023-09-19T05:51:55;16.80;99.90
47921;DHT22;33686;48.770;9.186;2023-09-19T05:54:21;16.60;99.90
47921;DHT22;33686;48.770;9.186;2023-09-19T05:56:47;16.40;99.90
47921;DHT22;33686;48.770;9.186;2023-09-19T05:59:14;16.30;99.90
47921;DHT22;33686;48.770;9.186;2023-09-19T06:01:44;16.20;99.90
47921;DHT22;33686;48.770;9.186;2023-09-19T06:04:09;16.10;99.90
47921;DHT22;33686;48.770;9.186;2023-09-19T06:06:35;16.00;99.90
47921;DHT22;33686;48.770;9.186;2023-09-19T06:09:05;16.00;99.90
47921;DHT22;33686;48.770;9.186;2023-09-19T06:11:31;16.10;99.90
47921;DHT22;33686;48.770;9.186;2023-09-19T06:14:00;16.20;99.90
47921;DHT22;33686;48.770;9.186;2023-09-19T06:16:25;16.00;99.90
47921;DHT22;33686;48.770;9.186;2023-09-19T06:18:51;16.00;99.90
47921;DHT22;33686;48.770;9.186;2023-09-19T06:21:18;16.00;99.90
47921;DHT22;33686;48.770;9.186;2023-09-19T06:23:43;16.00;99.90
47921;DHT22;33686;48.770;9.186;2023-09-19T06:26:09;16.10;99.90
47921;DHT22;33686;48.770;9.186;2023-09-19T06:28:34;16.10;99.90
47921;DHT22;33686;48.770;9.186;2023-09-19T06:31:02;16.20;99.90
47921;DHT22;33686;48.770;9.186;2023-09-19T06:33:28;16.20;99.90
47921;DHT22;33686;48.770;9.186;2023-09-19T06:35:56;16.30;99.90
47921;DHT22;33686;48.770;9.186;2023-09-19T06:38:25;16.40;99.90
47921;DHT22;33686;48.770;9.186;2023-09-19T06:40:51;16.50;99.90
47921;DHT22;33686;48.770;9.186;2023-09-19T06:43:16;16.70;99.90
47921;DHT22;33686;48.770;9.186;2023-09-19T06:45:42;16.70;99.90
47921;DHT22;33686;48.770;9.186;2023-09-19T06:48:07;16.80;99.90
47921;DHT22;33686;48.770;9.186;2023-09-19T06:50:35;16.90;99.90
47921;DHT22;33686;48.770;9.186;2023-09-19T06:53:01;16.90;99.90
47921;DHT22;33686;48.770;9.186;2023-09-19T06:55:27;17.10;99.90
47921;DHT22;33686;48.770;9.186;2023-09-19T06:57:53;17.20;99.90
47921;DHT22;33686;48.770;9.186;2023-09-19T07:00:21;17.40;99.90
47921;DHT22;33686;48.770;9.186;2023-09-19T07:05:32;17.80;99.90
47921;DHT22;33686;48.770;9.186;2023-09-19T07:07:58;18.40;99.90
47921;DHT22;33686;48.770;9.186;2023-09-19T07:10:24;19.50;99.90
47921;DHT22;33686;48.770;9.186;2023-09-19T07:12:58;19.90;99.90
47921;DHT22;33686;48.770;9.186;2023-09-19T07:15:24;20.40;99.90
47921;DHT22;33686;48.770;9.186;2023-09-19T07:17:53;20.20;99.90
47921;DHT22;33686;48.770;9.186;2023-09-19T07:20:20;20.20;99.90
47921;DHT22;33686;48.770;9.186;2023-09-19T07:22:45;20.30;99.90
47921;DHT22;33686;48.770;9.186;2023-09-19T07:25:12;20.00;99.90
47921;DHT22;33686;48.770;9.186;2023-09-19T07:27:40;19.80;99.90
47921;DHT22;33686;48.770;9.186;2023-09-19T07:30:05;19.80;99.90
47921;DHT22;33686;48.770;9.186;2023-09-19T07:32:31;19.70;99.90
47921;DHT22;33686;48.770;9.186;2023-09-19T07:34:57;19.90;99.90
47921;DHT22;33686;48.770;9.186;2023-09-19T07:37:22;19.80;99.90
47921;DHT22;33686;48.770;9.186;2023-09-19T07:39:51;19.80;99.90
47921;DHT22;33686;48.770;9.186;2023-09-19T07:42:16;20.50;99.90
47921;DHT22;33686;48.770;9.186;2023-09-19T07:44:43;21.00;99.90
47921;DHT22;33686;48.770;9.186;2023-09-19T07:47:12;21.10;99.90
47921;DHT22;33686;48.770;9.186;2023-09-19T07:49:38;21.40;99.90
47921;DHT22;33686;48.770;9.186;2023-09-19T07:52:03;22.20;99.90
47921;DHT22;33686;48.770;9.186;2023-09-19T07:54:29;22.50;99.90
47921;DHT22;33686;48.770;9.186;2023-09-19T07:57:01;22.70;99.90
47921;DHT22;33686;48.770;9.186;2023-09-19T07:59:26;22.20;99.90
47921;DHT22;33686;48.770;9.186;2023-09-19T08:01:52;22.30;99.90
47921;DHT22;33686;48.770;9.186;2023-09-19T08:04:17;22.40;99.90
47921;DHT22;33686;48.770;9.186;2023-09-19T08:06:44;22.60;99.90
47921;DHT22;33686;48.770;9.186;2023-09-19T08:09:10;22.70;99.90
47921;DHT22;33686;48.770;9.186;2023-09-19T08:11:36;23.10;99.90
47921;DHT22;33686;48.770;9.186;2023-09-19T08:14:02;23.60;99.90
47921;DHT22;33686;48.770;9.186;2023-09-19T08:16:28;23.90;99.90
47921;DHT22;33686;48.770;9.186;2023-09-19T08:18:53;23.80;99.90
47921;DHT22;33686;48.770;9.186;2023-09-19T08:21:23;24.30;99.90
47921;DHT22;33686;48.770;9.186;2023-09-19T08:23:50;24.70;99.90
47921;DHT22;33686;48.770;9.186;2023-09-19T08:26:15;24.70;99.90
47921;DHT22;33686;48.770;9.186;2023-09-19T08:28:40;24.80;99.90
47921;DHT22;33686;48.770;9.186;2023-09-19T08:31:06;24.20;99.90
47921;DHT22;33686;48.770;9.186;2023-09-19T08:33:34;24.60;99.90
47921;DHT22;33686;48.770;9.186;2023-09-19T08:36:01;24.60;99.90
47921;DHT22;33686;48.770;9.186;2023-09-19T08:38:26;25.00;99.90
47921;DHT22;33686;48.770;9.186;2023-09-19T08:40:59;25.20;99.90
47921;DHT22;33686;48.770;9.186;2023-09-19T08:43:25;25.00;99.90
47921;DHT22;33686;48.770;9.186;2023-09-19T08:46:05;25.00;99.90
47921;DHT22;33686;48.770;9.186;2023-09-19T08:48:34;24.70;99.90
47921;DHT22;33686;48.770;9.186;2023-09-19T08:53:31;23.80;99.90
47921;DHT22;33686;48.770;9.186;2023-09-19T08:55:59;23.50;99.90
47921;DHT22;33686;48.770;9.186;2023-09-19T08:58:29;23.40;99.90
47921;DHT22;33686;48.770;9.186;2023-09-19T09:00:56;23.20;99.90
47921;DHT22;33686;48.770;9.186;2023-09-19T09:03:23;23.60;99.90
47921;DHT22;33686;48.770;9.186;2023-09-19T09:05:50;23.50;99.90
47921;DHT22;33686;48.770;9.186;2023-09-19T09:08:16;24.00;99.90
47921;DHT22;33686;48.770;9.186;2023-09-19T09:10:44;24.50;99.90
47921;DHT22;33686;48.770;9.186;2023-09-19T09:13:09;24.70;99.90
47921;DHT22;33686;48.770;9.186;2023-09-19T09:15:37;25.10;99.90
47921;DHT22;33686;48.770;9.186;2023-09-19T09:18:03;24.80;99.90
47921;DHT22;33686;48.770;9.186;2023-09-19T09:20:30;24.50;99.90
47921;DHT22;33686;48.770;9.186;2023-09-19T09:22:56;24.30;99.90
47921;DHT22;33686;48.770;9.186;2023-09-19T09:28:23;24.80;99.90
47921;DHT22;33686;48.770;9.186;2023-09-19T09:30:49;24.70;99.90
47921;DHT22;33686;48.770;9.186;2023-09-19T09:33:15;24.20;99.90
47921;DHT22;33686;48.770;9.186;2023-09-19T09:38:15;22.50;99.90
47921;DHT22;33686;48.770;9.186;2023-09-19T09:40:47;22.40;99.90
47921;DHT22;33686;48.770;9.186;2023-09-19T09:43:27;22.80;99.90
47921;DHT22;33686;48.770;9.186;2023-09-19T09:51:42;23.00;99.90
47921;DHT22;33686;48.770;9.186;2023-09-19T09:54:28;23.40;99.90
47921;DHT22;33686;48.770;9.186;2023-09-19T09:57:02;23.50;99.90
47921;DHT22;33686;48.770;9.186;2023-09-19T09:59:52;23.50;99.90
47921;DHT22;33686;48.770;9.186;2023-09-19T10:02:19;23.50;99.90
47921;DHT22;33686;48.770;9.186;2023-09-19T10:04:48;23.20;99.90
47921;DHT22;33686;48.770;9.186;2023-09-19T10:07:25;23.30;99.90
47921;DHT22;33686;48.770;9.186;2023-09-19T10:09:53;22.80;99.90
47921;DHT22;33686;48.770;9.186;2023-09-19T10:12:19;22.70;99.90
47921;DHT22;33686;48.770;9.186;2023-09-19T10:14:46;22.50;99.90
47921;DHT22;33686;48.770;9.186;2023-09-19T10:17:12;22.80;99.90
47921;DHT22;33686;48.770;9.186;2023-09-19T10:19:56;22.40;99.90
47921;DHT22;33686;48.770;9.186;2023-09-19T10:22:23;22.60;99.90
47921;DHT22;33686;48.770;9.186;2023-09-19T10:24:49;22.60;99.90
47921;DHT22;33686;48.770;9.186;2023-09-19T10:27:19;22.40;99.90
47921;DHT22;33686;48.770;9.186;2023-09-19T10:29:48;22.40;99.90
47921;DHT22;33686;48.770;9.186;2023-09-19T10:32:16;22.10;99.90
47921;DHT22;33686;48.770;9.186;2023-09-19T10:34:46;21.90;99.90
47921;DHT22;33686;48.770;9.186;2023-09-19T10:37:12;21.80;99.90
47921;DHT22;33686;48.770;9.186;2023-09-19T10:39:39;21.80;99.90
47921;DHT22;33686;48.770;9.186;2023-09-19T10:42:06;21.80;99.90
47921;DHT22;33686;48.770;9.186;2023-09-19T10:44:34;21.80;99.90
47921;DHT22;33686;48.770;9.186;2023-09-19T10:47:03;21.80;99.90
47921;DHT22;33686;48.770;9.186;2023-09-19T10:49:32;21.90;99.90
47921;DHT22;33686;48.770;9.186;2023-09-19T10:51:59;21.60;99.90
47921;DHT22;33686;48.770;9.186;2023-09-19T10:54:26;21.50;99.90
47921;DHT22;33686;48.770;9.186;2023-09-19T10:56:53;21.60;99.90
47921;DHT22;33686;48.770;9.186;2023-09-19T10:59:19;21.40;99.90
47921;DHT22;33686;48.770;9.186;2023-09-19T11:01:52;21.40;99.90
47921;DHT22;33686;48.770;9.186;2023-09-19T11:04:29;21.60;99.90
47921;DHT22;33686;48.770;9.186;2023-09-19T11:07:06;21.60;99.90
47921;DHT22;33686;48.770;9.186;2023-09-19T11:09:49;21.50;99.90
47921;DHT22;33686;48.770;9.186;2023-09-19T11:13:09;21.50;99.90
47921;DHT22;33686;48.770;9.186;2023-09-19T11:15:11;21.40;99.90
47921;DHT22;33686;48.770;9.186;2023-09-19T11:17:58;21.50;99.90
47921;DHT22;33686;48.770;9.186;2023-09-19T11:20:24;21.30;99.90
47921;DHT22;33686;48.770;9.186;2023-09-19T11:33:18;21.60;99.90
47921;DHT22;33686;48.770;9.186;2023-09-19T11:36:08;21.40;99.90
47921;DHT22;33686;48.770;9.186;2023-09-19T11:49:13;21.40;99.90
47921;DHT22;33686;48.770;9.186;2023-09-19T11:51:41;21.60;99.90
47921;DHT22;33686;48.770;9.186;2023-09-19T11:54:10;21.80;99.90
47921;DHT22;33686;48.770;9.186;2023-09-19T11:56:40;21.80;99.90
47921;DHT22;33686;48.770;9.186;2023-09-19T11:59:06;21.90;99.90
47921;DHT22;33686;48.770;9.186;2023-09-19T12:01:33;22.00;99.90
47921;DHT22;33686;48.770;9.186;2023-09-19T12:04:01;21.90;99.90
47921;DHT22;33686;48.770;9.186;2023-09-19T12:06:27;21.80;99.90
47921;DHT22;33686;48.770;9.186;2023-09-19T12:08:54;21.90;99.90
47921;DHT22;33686;48.770;9.186;2023-09-19T12:11:23;21.90;99.90
47921;DHT22;33686;48.770;9.186;2023-09-19T12:13:49;22.10;99.90
47921;DHT22;33686;48.770;9.186;2023-09-19T12:16:18;22.20;99.90
47921;DHT22;33686;48.770;9.186;2023-09-19T12:18:47;22.30;99.90
47921;DHT22;33686;48.770;9.186;2023-09-19T12:21:30;22.40;99.90
47921;DHT22;33686;48.770;9.186;2023-09-19T12:24:06;22.10;99.90
47921;DHT22;33686;48.770;9.186;2023-09-19T12:26:44;22.10;99.90
47921;DHT22;33686;48.770;9.186;2023-09-19T12:29:13;22.10;99.90
47921;DHT22;33686;48.770;9.186;2023-09-19T12:31:49;22.30;99.90
47921;DHT22;33686;48.770;9.186;2023-09-19T12:34:19;22.30;99.90
47921;DHT22;33686;48.770;9.186;2023-09-19T12:36:45;22.30;99.90
47921;DHT22;33686;48.770;9.186;2023-09-19T12:39:11;22.30;99.90
47921;DHT22;33686;48.770;9.186;2023-09-19T12:41:37;22.50;99.90
47921;DHT22;33686;48.770;9.186;2023-09-19T12:44:03;22.50;99.90
47921;DHT22;33686;48.770;9.186;2023-09-19T12:46:34;22.50;99.90
47921;DHT22;33686;48.770;9.186;2023-09-19T12:49:17;22.40;99.90
47921;DHT22;33686;48.770;9.186;2023-09-19T12:51:42;22.20;99.90
47921;DHT22;33686;48.770;9.186;2023-09-19T12:54:09;22.10;99.90
47921;DHT22;33686;48.770;9.186;2023-09-19T12:56:39;22.20;99.90
47921;DHT22;33686;48.770;9.186;2023-09-19T12:59:06;22.30;99.90
47921;DHT22;33686;48.770;9.186;2023-09-19T13:01:35;22.10;99.90
47921;DHT22;33686;48.770;9.186;2023-09-19T13:06:51;22.30;99.90
47921;DHT22;33686;48.770;9.186;2023-09-19T13:09:17;22.50;99.90
47921;DHT22;33686;48.770;9.186;2023-09-19T13:11:43;22.70;99.90
47921;DHT22;33686;48.770;9.186;2023-09-19T13:14:20;22.50;99.90
47921;DHT22;33686;48.770;9.186;2023-09-19T13:17:19;22.50;99.90
47921;DHT22;33686;48.770;9.186;2023-09-19T13:19:49;22.70;99.90
47921;DHT22;33686;48.770;9.186;2023-09-19T13:24:59;22.90;99.90
47921;DHT22;33686;48.770;9.186;2023-09-19T13:27:25;23.10;99.90
47921;DHT22;33686;48.770;9.186;2023-09-19T13:29:52;22.90;99.90
47921;DHT22;33686;48.770;9.186;2023-09-19T13:32:18;23.00;99.90
47921;DHT22;33686;48.770;9.186;2023-09-19T13:34:43;22.90;99.90
47921;DHT22;33686;48.770;9.186;2023-09-19T13:37:09;22.90;99.90
47921;DHT22;33686;48.770;9.186;2023-09-19T13:39:35;22.80;99.90
47921;DHT22;33686;48.770;9.186;2023-09-19T13:42:01;22.60;99.90
47921;DHT22;33686;48.770;9.186;2023-09-19T13:44:28;22.80;99.90
47921;DHT22;33686;48.770;9.186;2023-09-19T13:46:55;22.70;99.90
47921;DHT22;33686;48.770;9.186;2023-09-19T13:49:22;22.70;99.90
47921;DHT22;33686;48.770;9.186;2023-09-19T13:51:48;22.80;99.90
47921;DHT22;33686;48.770;9.186;2023-09-19T13:54:14;22.90;99.90
47921;DHT22;33686;48.770;9.186;2023-09-19T13:56:40;22.90;99.90
47921;DHT22;33686;48.770;9.186;2023-09-19T13:59:06;22.90;99.90
47921;DHT22;33686;48.770;9.186;2023-09-19T14:01:31;22.90;99.90
47921;DHT22;33686;48.770;9.186;2023-09-19T14:03:57;22.80;99.90
47921;DHT22;33686;48.770;9.186;2023-09-19T14:06:23;22.70;99.90
47921;DHT22;33686;48.770;9.186;2023-09-19T14:08:49;22.60;99.90
47921;DHT22;33686;48.770;9.186;2023-09-19T14:11:15;22.60;99.90
47921;DHT22;33686;48.770;9.186;2023-09-19T14:13:41;22.50;99.90
47921;DHT22;33686;48.770;9.186;2023-09-19T14:16:09;22.60;99.90
47921;DHT22;33686;48.770;9.186;2023-09-19T14:18:35;22.60;99.90
47921;DHT22;33686;48.770;9.186;2023-09-19T14:21:04;22.60;99.90
47921;DHT22;33686;48.770;9.186;2023-09-19T14:23:34;22.60;99.90
47921;DHT22;33686;48.770;9.186;2023-09-19T14:26:00;22.70;99.90
47921;DHT22;33686;48.770;9.186;2023-09-19T14:28:26;22.60;99.90
47921;DHT22;33686;48.770;9.186;2023-09-19T14:30:52;22.70;99.90
47921;DHT22;33686;48.770;9.186;2023-09-19T14:33:18;22.70;99.90
47921;DHT22;33686;48.770;9.186;2023-09-19T14:35:43;22.60;99.90
47921;DHT22;33686;48.770;9.186;2023-09-19T14:38:09;22.60;99.90
47921;DHT22;33686;48.770;9.186;2023-09-19T14:40:34;22.50;99.90
47921;DHT22;33686;48.770;9.186;2023-09-19T14:43:01;22.60;99.90
47921;DHT22;33686;48.770;9.186;2023-09-19T14:45:27;22.70;99.90
47921;DHT22;33686;48.770;9.186;2023-09-19T14:47:53;22.70;99.90
47921;DHT22;33686;48.770;9.186;2023-09-19T14:50:21;22.90;99.90
47921;DHT22;33686;48.770;9.186;2023-09-19T14:52:47;22.90;99.90
47921;DHT22;33686;48.770;9.186;2023-09-19T14:55:14;22.90;99.90
47921;DHT22;33686;48.770;9.186;2023-09-19T14:57:41;22.90;99.90
47921;DHT22;33686;48.770;9.186;2023-09-19T15:00:08;22.90;99.90
47921;DHT22;33686;48.770;9.186;2023-09-19T15:02:38;23.00;99.90
47921;DHT22;33686;48.770;9.186;2023-09-19T15:05:06;23.00;99.90
47921;DHT22;33686;48.770;9.186;2023-09-19T15:07:36;22.90;99.90
47921;DHT22;33686;48.770;9.186;2023-09-19T15:10:03;22.80;99.90
47921;DHT22;33686;48.770;9.186;2023-09-19T15:12:32;22.70;99.90
47921;DHT22;33686;48.770;9.186;2023-09-19T15:14:58;22.80;99.90
47921;DHT22;33686;48.770;9.186;2023-09-19T15:17:23;22.80;99.90
47921;DHT22;33686;48.770;9.186;2023-09-19T15:19:50;22.60;99.90
47921;DHT22;33686;48.770;9.186;2023-09-19T15:22:16;22.60;99.90
47921;DHT22;33686;48.770;9.186;2023-09-19T15:24:42;22.60;99.90
47921;DHT22;33686;48.770;9.186;2023-09-19T15:27:07;22.40;99.90
47921;DHT22;33686;48.770;9.186;2023-09-19T15:29:33;22.50;99.90
47921;DHT22;33686;48.770;9.186;2023-09-19T15:31:58;22.40;99.90
47921;DHT22;33686;48.770;9.186;2023-09-19T15:34:27;22.40;99.90
47921;DHT22;33686;48.770;9.186;2023-09-19T15:36:54;22.40;99.90
47921;DHT22;33686;48.770;9.186;2023-09-19T15:39:19;22.50;99.90
47921;DHT22;33686;48.770;9.186;2023-09-19T15:41:48;22.50;99.90
47921;DHT22;33686;48.770;9.186;2023-09-19T15:44:17;22.50;99.90
47921;DHT22;33686;48.770;9.186;2023-09-19T15:46:42;22.50;99.90
47921;DHT22;33686;48.770;9.186;2023-09-19T15:49:09;22.40;99.90
47921;DHT22;33686;48.770;9.186;2023-09-19T15:51:35;22.40;99.90
47921;DHT22;33686;48.770;9.186;2023-09-19T15:54:07;22.40;99.90
47921;DHT22;33686;48.770;9.186;2023-09-19T15:56:33;22.40;99.90
47921;DHT22;33686;48.770;9.186;2023-09-19T15:59:00;22.40;99.90
47921;DHT22;33686;48.770;9.186;2023-09-19T16:01:26;22.30;99.90
47921;DHT22;33686;48.770;9.186;2023-09-19T16:03:52;22.20;99.90
47921;DHT22;33686;48.770;9.186;2023-09-19T16:06:19;22.20;99.90
47921;DHT22;33686;48.770;9.186;2023-09-19T16:08:48;22.20;99.90
47921;DHT22;33686;48.770;9.186;2023-09-19T16:11:14;22.20;99.90
47921;DHT22;33686;48.770;9.186;2023-09-19T16:13:41;22.10;99.90
47921;DHT22;33686;48.770;9.186;2023-09-19T16:16:09;22.10;99.90
47921;DHT22;33686;48.770;9.186;2023-09-19T16:18:38;22.10;99.90
47921;DHT22;33686;48.770;9.186;2023-09-19T16:21:05;22.00;99.90
47921;DHT22;33686;48.770;9.186;2023-09-19T16:23:31;22.00;99.90
47921;DHT22;33686;48.770;9.186;2023-09-19T16:26:15;22.00;99.90
47921;DHT22;33686;48.770;9.186;2023-09-19T16:28:41;22.00;99.90
47921;DHT22;33686;48.770;9.186;2023-09-19T16:31:08;21.90;99.90
47921;DHT22;33686;48.770;9.186;2023-09-19T16:33:34;21.90;99.90
47921;DHT22;33686;48.770;9.186;2023-09-19T16:36:00;21.90;99.90
47921;DHT22;33686;48.770;9.186;2023-09-19T16:38:26;21.90;99.90
47921;DHT22;33686;48.770;9.186;2023-09-19T16:40:53;21.80;99.90
47921;DHT22;33686;48.770;9.186;2023-09-19T16:43:19;21.80;99.90
47921;DHT22;33686;48.770;9.186;2023-09-19T16:45:56;21.80;99.90
47921;DHT22;33686;48.770;9.186;2023-09-19T16:48:22;21.70;99.90
47921;DHT22;33686;48.770;9.186;2023-09-19T16:50:51;21.60;99.90
47921;DHT22;33686;48.770;9.186;2023-09-19T16:53:17;21.60;99.90
47921;DHT22;33686;48.770;9.186;2023-09-19T16:55:48;21.50;99.90
47921;DHT22;33686;48.770;9.186;2023-09-19T16:58:14;21.50;99.90
47921;DHT22;33686;48.770;9.186;2023-09-19T17:00:40;21.50;99.90
47921;DHT22;33686;48.770;9.186;2023-09-19T17:03:06;21.40;99.90
47921;DHT22;33686;48.770;9.186;2023-09-19T17:05:31;21.40;99.90
47921;DHT22;33686;48.770;9.186;2023-09-19T17:07:57;21.40;99.90
47921;DHT22;33686;48.770;9.186;2023-09-19T17:10:24;21.30;99.90
47921;DHT22;33686;48.770;9.186;2023-09-19T17:12:52;21.30;99.90
47921;DHT22;33686;48.770;9.186;2023-09-19T17:15:19;21.20;99.90
47921;DHT22;33686;48.770;9.186;2023-09-19T17:17:46;21.20;99.90
47921;DHT22;33686;48.770;9.186;2023-09-19T17:20:12;21.10;99.90
47921;DHT22;33686;48.770;9.186;2023-09-19T17:22:37;21.00;99.90
47921;DHT22;33686;48.770;9.186;2023-09-19T17:25:03;20.90;99.90
47921;DHT22;33686;48.770;9.186;2023-09-19T17:27:28;20.80;99.90
47921;DHT22;33686;48.770;9.186;2023-09-19T17:29:54;20.60;99.90
47921;DHT22;33686;48.770;9.186;2023-09-19T17:32:19;20.40;99.90
47921;DHT22;33686;48.770;9.186;2023-09-19T17:34:46;20.00;99.90
47921;DHT22;33686;48.770;9.186;2023-09-19T17:37:12;19.70;99.90
47921;DHT22;33686;48.770;9.186;2023-09-19T17:39:38;19.60;99.90
47921;DHT22;33686;48.770;9.186;2023-09-19T17:42:03;19.40;99.90
47921;DHT22;33686;48.770;9.186;2023-09-19T17:44:31;19.20;99.90
47921;DHT22;33686;48.770;9.186;2023-09-19T17:47:00;19.10;99.90
47921;DHT22;33686;48.770;9.186;2023-09-19T17:49:26;18.90;99.90
47921;DHT22;33686;48.770;9.186;2023-09-19T17:51:52;19.00;99.90
47921;DHT22;33686;48.770;9.186;2023-09-19T17:54:18;19.00;99.90
47921;DHT22;33686;48.770;9.186;2023-09-19T17:56:43;18.90;99.90
47921;DHT22;33686;48.770;9.186;2023-09-19T17:59:09;18.90;99.90
47921;DHT22;33686;48.770;9.186;2023-09-19T18:01:35;18.90;99.90
47921;DHT22;33686;48.770;9.186;2023-09-19T18:04:02;18.90;99.90
47921;DHT22;33686;48.770;9.186;2023-09-19T18:06:28;18.70;99.90
47921;DHT22;33686;48.770;9.186;2023-09-19T18:08:56;18.50;99.90
47921;DHT22;33686;48.770;9.186;2023-09-19T18:11:22;18.40;99.90
47921;DHT22;33686;48.770;9.186;2023-09-19T18:13:51;18.40;99.90
47921;DHT22;33686;48.770;9.186;2023-09-19T18:16:17;18.30;99.90
47921;DHT22;33686;48.770;9.186;2023-09-19T18:18:44;18.30;99.90
47921;DHT22;33686;48.770;9.186;2023-09-19T18:21:18;18.30;99.90
47921;DHT22;33686;48.770;9.186;2023-09-19T18:23:51;18.30;99.90
47921;DHT22;33686;48.770;9.186;2023-09-19T18:26:16;18.30;99.90
47921;DHT22;33686;48.770;9.186;2023-09-19T18:28:43;18.30;99.90
47921;DHT22;33686;48.770;9.186;2023-09-19T18:31:09;18.30;99.90
47921;DHT22;33686;48.770;9.186;2023-09-19T18:33:34;18.30;99.90
47921;DHT22;33686;48.770;9.186;2023-09-19T18:36:03;18.30;99.90
47921;DHT22;33686;48.770;9.186;2023-09-19T18:38:32;18.20;99.90
47921;DHT22;33686;48.770;9.186;2023-09-19T18:40:58;18.20;99.90
47921;DHT22;33686;48.770;9.186;2023-09-19T18:43:23;18.20;99.90
47921;DHT22;33686;48.770;9.186;2023-09-19T18:45:57;18.20;99.90
47921;DHT22;33686;48.770;9.186;2023-09-19T18:48:23;18.30;99.90
47921;DHT22;33686;48.770;9.186;2023-09-19T18:50:50;18.30;99.90
47921;DHT22;33686;48.770;9.186;2023-09-19T18:53:16;18.30;99.90
47921;DHT22;33686;48.770;9.186;2023-09-19T18:55:42;18.30;99.90
47921;DHT22;33686;48.770;9.186;2023-09-19T18:58:08;18.30;99.90
47921;DHT22;33686;48.770;9.186;2023-09-19T19:00:34;18.20;99.90
47921;DHT22;33686;48.770;9.186;2023-09-19T19:02:59;18.20;99.90
47921;DHT22;33686;48.770;9.186;2023-09-19T19:05:25;18.20;99.90
47921;DHT22;33686;48.770;9.186;2023-09-19T19:07:50;18.10;99.90
47921;DHT22;33686;48.770;9.186;2023-09-19T19:10:16;18.10;99.90
47921;DHT22;33686;48.770;9.186;2023-09-19T19:12:42;18.10;99.90
47921;DHT22;33686;48.770;9.186;2023-09-19T19:15:08;18.10;99.90
47921;DHT22;33686;48.770;9.186;2023-09-19T19:17:34;18.10;99.90
47921;DHT22;33686;48.770;9.186;2023-09-19T19:20:00;18.00;99.90
47921;DHT22;33686;48.770;9.186;2023-09-19T19:22:26;18.00;99.90
47921;DHT22;33686;48.770;9.186;2023-09-19T19:24:53;17.90;99.90
47921;DHT22;33686;48.770;9.186;2023-09-19T19:27:19;17.90;99.90
47921;DHT22;33686;48.770;9.186;2023-09-19T19:29:45;17.80;99.90
47921;DHT22;33686;48.770;9.186;2023-09-19T19:32:11;17.70;99.90
47921;DHT22;33686;48.770;9.186;2023-09-19T19:34:38;17.70;99.90
47921;DHT22;33686;48.770;9.186;2023-09-19T19:37:04;17.70;99.90
47921;DHT22;33686;48.770;9.186;2023-09-19T19:39:31;17.60;99.90
47921;DHT22;33686;48.770;9.186;2023-09-19T19:41:56;17.50;99.90
47921;DHT22;33686;48.770;9.186;2023-09-19T19:44:24;17.50;99.90
47921;DHT22;33686;48.770;9.186;2023-09-19T19:46:50;17.50;99.90
47921;DHT22;33686;48.770;9.186;2023-09-19T19:49:16;17.50;99.90
47921;DHT22;33686;48.770;9.186;2023-09-19T19:51:41;17.50;99.90
47921;DHT22;33686;48.770;9.186;2023-09-19T19:54:10;17.50;99.90
47921;DHT22;33686;48.770;9.186;2023-09-19T19:56:38;17.50;99.90
47921;DHT22;33686;48.770;9.186;2023-09-19T19:59:06;17.40;99.90
47921;DHT22;33686;48.770;9.186;2023-09-19T20:01:32;17.30;99.90
47921;DHT22;33686;48.770;9.186;2023-09-19T20:03:57;17.30;99.90
47921;DHT22;33686;48.770;9.186;2023-09-19T20:06:23;17.40;99.90
47921;DHT22;33686;48.770;9.186;2023-09-19T20:08:49;17.40;99.90
47921;DHT22;33686;48.770;9.186;2023-09-19T20:11:17;17.70;99.90
47921;DHT22;33686;48.770;9.186;2023-09-19T20:13:44;17.40;99.90
47921;DHT22;33686;48.770;9.186;2023-09-19T20:16:09;17.50;99.90
47921;DHT22;33686;48.770;9.186;2023-09-19T20:18:35;17.40;99.90
47921;DHT22;33686;48.770;9.186;2023-09-19T20:21:06;17.30;99.90
47921;DHT22;33686;48.770;9.186;2023-09-19T20:23:40;17.30;99.90
47921;DHT22;33686;48.770;9.186;2023-09-19T20:26:09;17.20;99.90
47921;DHT22;33686;48.770;9.186;2023-09-19T20:28:36;17.30;99.90
47921;DHT22;33686;48.770;9.186;2023-09-19T20:31:05;17.20;99.90
47921;DHT22;33686;48.770;9.186;2023-09-19T20:33:33;17.30;99.90
47921;DHT22;33686;48.770;9.186;2023-09-19T20:35:58;17.20;99.90
47921;DHT22;33686;48.770;9.186;2023-09-19T20:38:25;17.20;99.90
47921;DHT22;33686;48.770;9.186;2023-09-19T20:40:50;17.20;99.90
47921;DHT22;33686;48.770;9.186;2023-09-19T20:43:16;17.20;99.90
47921;DHT22;33686;48.770;9.186;2023-09-19T20:45:41;17.10;99.90
47921;DHT22;33686;48.770;9.186;2023-09-19T20:48:07;17.10;99.90
47921;DHT22;33686;48.770;9.186;2023-09-19T20:50:33;17.10;99.90
47921;DHT22;33686;48.770;9.186;2023-09-19T20:52:59;17.00;99.90
47921;DHT22;33686;48.770;9.186;2023-09-19T20:55:24;17.00;99.90
47921;DHT22;33686;48.770;9.186;2023-09-19T20:57:51;17.00;99.90
47921;DHT22;33686;48.770;9.186;2023-09-19T21:00:17;17.00;99.90
47921;DHT22;33686;48.770;9.186;2023-09-19T21:02:45;17.00;99.90
47921;DHT22;33686;48.770;9.186;2023-09-19T21:05:12;16.90;99.90
47921;DHT22;33686;48.770;9.186;2023-09-19T21:07:38;16.90;99.90
47921;DHT22;33686;48.770;9.186;2023-09-19T21:10:04;16.90;99.90
47921;DHT22;33686;48.770;9.186;2023-09-19T21:12:31;16.90;99.90
47921;DHT22;33686;48.770;9.186;2023-09-19T21:14:56;16.90;99.90
47921;DHT22;33686;48.770;9.186;2023-09-19T21:17:25;16.90;99.90
47921;DHT22;33686;48.770;9.186;2023-09-19T21:19:51;16.90;99.90
47921;DHT22;33686;48.770;9.186;2023-09-19T21:22:17;16.80;99.90
47921;DHT22;33686;48.770;9.186;2023-09-19T21:24:42;16.80;99.90
47921;DHT22;33686;48.770;9.186;2023-09-19T21:27:08;16.70;99.90
47921;DHT22;33686;48.770;9.186;2023-09-19T21:29:33;16.70;99.90
47921;DHT22;33686;48.770;9.186;2023-09-19T21:31:59;16.60;99.90